Belle Chasse, Louisiana
Current Conditions -  °F | °C
As of 9:55 AM on Friday 19 Dec 2014 (Local Time) from KNBG Reporting Station
Overcast Overcast  
Wind Chill: 58°   Ceiling: 1400
Heat Index: 58°   Visibility: 10mi
Dew Point: 53°   Wind: 17mph
Humidity: 84%   Direction: 60°ENE
Pressure: 30.13"   Gusts: NA
Location:  29.85°N, 89.99°W
Report Text: KNBG 191555Z 06015KT 10SM BKN014 OVC023 14/12 A3013 RMK AO2 SLP202 T01440117 $
Loading
Personal Weather Stations






























Interactive Weather Map New forecast layout! Learn more

10-Day Weather Forecast

Advertisements
Track Severe Weather on mobile